Local Weather
17097
page-template-default,page,page-id-17097,bridge-core-1.0.4,ajax_fade,page_not_loaded,,hide_top_bar_on_mobile_header,qode-child-theme-ver-1.0.0,qode-theme-ver-18.0.9,qode-theme-bridge,qode_header_in_grid,wpb-js-composer js-comp-ver-4.11.2.1,vc_responsive
 

LOCAL WEATHER

METAR & TAF for EGTK Oxford

Available data for EGTK from the past hour
OXFORD
Metar
EGTK 211220Z 29008KT 240V340 9999 SCT042 17/07 Q1019

12:20 UTC

Wind: 290° 8kt

Visibility: 9999 m

Sky: SCT 4200 ft

Temp: 17 deg C / 62.6 deg F

Dewpoint: 7 deg C / 44.6 deg F

Pressure: 1019 hPa

TAF
TAF EGTK 211054Z 2112/2121 33007KT 9999 FEW045